.
WxDataArchive / Data Records for 2011-12-14
2011-12-13 December 2011 2011-12-15

Data Records for Wednesday, 14 December 2011

Time	Temp	Chill	HIndex	Humid	Dewpt	 Wind 	HiWind	WindDir	Rain 	Barom 
-----	----	-----	------	-----	-----	------	------	-------	-----	----- 
00:00	38.9	38.9	38.9	90	36.2	0	1	112	0.00	30.331 
00:05	38.9	38.9	38.9	90	36.2	0	0	---	0.00	30.331 
00:10	38.9	38.9	38.9	90	36.2	0	0	---	0.01	30.331 
00:15	38.8	38.8	38.8	91	36.4	0	0	---	0.00	30.325 
00:20	38.8	38.8	38.8	91	36.4	0	1	112	0.00	30.325 
00:25	38.8	38.8	38.8	92	36.7	0	0	---	0.00	30.325 
00:30	38.8	38.8	38.8	92	36.7	0	0	---	0.00	30.319 
00:35	38.8	38.8	38.8	92	36.7	0	2	112	0.00	30.319 
00:40	38.8	38.8	38.8	92	36.7	0	1	112	0.00	30.319 
00:45	38.6	38.6	38.6	92	36.5	0	0	---	0.00	30.320 
00:50	38.6	38.6	38.6	93	36.8	0	0	---	0.00	30.320 
00:55	38.6	38.6	38.6	93	36.8	0	0	---	0.00	30.320 
01:00	38.5	38.5	38.5	93	36.7	0	0	---	0.00	30.321 
01:05	38.5	38.5	38.5	93	36.7	0	0	---	0.00	30.321 
01:10	38.5	38.5	38.5	93	36.7	0	0	---	0.00	30.321 
01:15	38.3	38.3	38.3	93	36.5	0	0	---	0.00	30.312 
01:20	38.3	38.3	38.3	93	36.5	0	0	---	0.00	30.312 
01:25	38.3	38.3	38.3	93	36.5	0	0	---	0.01	30.312 
01:30	38.3	38.3	38.3	93	36.5	0	0	---	0.00	30.312 
01:35	38.2	38.2	38.2	93	36.4	0	0	---	0.01	30.312 
01:40	38.3	38.3	38.3	93	36.5	0	0	---	0.00	30.312 
01:45	38.3	38.3	38.3	94	36.7	0	0	---	0.01	30.310 
01:50	38.3	38.3	38.3	94	36.7	0	0	---	0.01	30.310 
01:55	38.3	38.3	38.3	94	36.7	0	1	112	0.00	30.310 
02:00	38.5	38.5	38.5	94	36.9	0	1	112	0.00	30.293 
02:05	38.5	38.5	38.5	94	36.9	0	0	---	0.01	30.293 
02:10	38.5	38.5	38.5	94	36.9	0	1	112	0.00	30.293 
02:15	38.5	38.5	38.5	94	36.9	0	0	---	0.00	30.293 
02:20	38.3	38.3	38.3	94	36.7	0	2	112	0.01	30.293 
02:25	38.3	38.3	38.3	94	36.7	0	1	112	0.00	30.293 
02:30	38.5	38.5	38.5	94	36.9	0	1	112	0.00	30.291 
02:35	38.5	38.5	38.5	94	36.9	0	1	112	0.01	30.291 
02:40	38.5	38.5	38.5	94	36.9	0	0	---	0.01	30.291 
02:45	38.5	38.5	38.5	95	37.2	0	1	112	0.00	30.292 
02:50	38.5	38.5	38.5	95	37.2	0	1	112	0.01	30.292 
02:55	38.5	38.5	38.5	95	37.2	0	0	---	0.00	30.292 
03:00	38.6	38.6	38.6	95	37.3	0	0	---	0.01	30.293 
03:05	38.6	38.6	38.6	95	37.3	0	1	112	0.00	30.293 
03:10	38.8	38.8	38.8	95	37.5	0	1	112	0.01	30.293 
03:15	38.8	38.8	38.8	95	37.5	0	1	112	0.00	30.287 
03:20	38.9	38.9	38.9	95	37.6	0	0	---	0.01	30.287 
03:25	38.9	38.9	38.9	95	37.6	0	1	112	0.00	30.287 
03:30	38.8	38.8	38.8	95	37.5	0	0	---	0.01	30.284 
03:35	38.9	38.9	38.9	95	37.6	0	0	---	0.01	30.284 
03:40	38.9	38.9	38.9	95	37.6	0	0	---	0.01	30.284 
03:45	38.9	38.9	38.9	95	37.6	0	1	112	0.01	30.276 
03:50	39.1	39.1	39.1	95	37.8	0	1	112	0.00	30.276 
03:55	39.2	39.2	39.2	95	37.9	0	1	112	0.01	30.276 
04:00	39.3	39.3	39.3	95	38.0	0	3	112	0.02	30.265 
04:05	39.3	39.3	39.3	95	38.0	0	2	112	0.01	30.265 
04:10	39.5	39.5	39.5	95	38.2	0	1	112	0.01	30.265 
04:15	39.5	39.5	39.5	95	38.2	0	0	---	0.01	30.267 
04:20	39.5	39.5	39.5	95	38.2	0	0	---	0.00	30.267 
04:25	39.5	39.5	39.5	96	38.5	0	2	112	0.01	30.267 
04:30	39.6	39.6	39.6	96	38.6	0	1	112	0.00	30.257 
04:35	39.8	39.8	39.8	96	38.8	0	1	112	0.01	30.257 
04:40	39.8	39.8	39.8	96	38.8	0	1	112	0.01	30.257 
04:45	39.9	39.9	39.9	96	38.9	0	1	112	0.01	30.253 
04:50	39.9	39.9	39.9	96	38.9	0	1	112	0.00	30.253 
04:55	39.9	39.9	39.9	96	38.9	0	1	112	0.01	30.253 
05:00	39.9	39.9	39.9	96	38.9	0	0	---	0.00	30.248 
05:05	39.9	39.9	39.9	96	38.9	0	1	112	0.01	30.248 
05:10	40.1	40.1	40.1	96	39.1	0	1	112	0.00	30.248 
05:15	40.1	40.1	40.1	96	39.1	0	1	112	0.00	30.258 
05:20	40.1	40.1	40.1	96	39.1	0	1	112	0.00	30.258 
05:25	40.2	40.2	40.2	96	39.2	0	0	---	0.00	30.258 
05:30	40.2	40.2	40.2	96	39.2	0	0	---	0.00	30.249 
05:35	40.3	40.3	40.3	96	39.3	0	1	112	0.01	30.249 
05:40	40.3	40.3	40.3	96	39.3	0	0	---	0.00	30.249 
05:45	40.3	40.3	40.3	96	39.3	0	3	112	0.00	30.247 
05:50	40.3	40.3	40.3	96	39.3	0	1	112	0.00	30.247 
05:55	40.3	40.3	40.3	96	39.3	0	1	112	0.00	30.247 
06:00	40.5	40.5	40.5	96	39.5	1	3	90	0.00	30.236 
06:05	40.5	40.5	40.5	96	39.5	1	3	90	0.00	30.236 
06:10	40.5	40.5	40.5	96	39.5	1	3	112	0.00	30.236 
06:15	40.5	40.5	40.5	96	39.5	1	4	90	0.00	30.211 
06:20	40.5	40.5	40.5	96	39.5	1	4	90	0.01	30.211 
06:25	40.5	40.5	40.5	96	39.5	0	3	68	0.00	30.211 
06:30	40.5	40.5	40.5	96	39.5	1	3	90	0.00	30.213 
06:35	40.6	40.6	40.6	96	39.5	1	3	90	0.00	30.213 
06:40	40.6	40.6	40.6	96	39.5	0	1	90	0.01	30.213 
06:45	40.6	40.6	40.6	96	39.5	0	1	90	0.00	30.226 
06:50	40.6	40.6	40.6	96	39.5	0	1	90	0.00	30.226 
06:55	40.6	40.6	40.6	96	39.5	0	1	90	0.01	30.226 
07:00	40.8	40.8	40.8	96	39.7	0	1	90	0.00	30.225 
07:05	40.8	40.8	40.8	96	39.7	0	2	90	0.00	30.225 
07:10	40.8	40.8	40.8	96	39.7	0	0	---	0.00	30.225 
07:15	40.8	40.8	40.8	96	39.7	0	0	---	0.01	30.229 
07:20	40.9	40.9	40.9	96	39.8	0	1	90	0.00	30.229 
07:25	40.9	40.9	40.9	96	39.8	1	3	90	0.00	30.229 
07:30	41.1	41.1	41.1	96	40.0	0	1	90	0.00	30.227 
07:35	41.1	41.1	41.1	96	40.0	0	0	---	0.00	30.227 
07:40	40.9	40.9	40.9	96	39.8	0	0	---	0.00	30.227 
07:45	40.9	40.9	40.9	96	39.8	0	0	---	0.00	30.223 
07:50	40.9	40.9	40.9	96	39.8	0	1	90	0.00	30.223 
07:55	40.9	40.9	40.9	96	39.8	0	2	90	0.00	30.223 
08:00	40.8	40.8	40.8	96	39.7	0	1	90	0.00	30.219 
08:05	40.8	40.8	40.8	96	39.7	0	1	90	0.00	30.219 
08:10	40.8	40.8	40.8	96	39.7	0	2	90	0.01	30.219 
08:15	40.9	40.9	40.9	96	39.8	0	2	90	0.00	30.205 
08:20	40.8	40.8	40.8	96	39.7	0	2	90	0.00	30.205 
08:25	40.8	40.8	40.8	96	39.7	1	3	90	0.00	30.205 
08:30	40.8	40.8	40.8	96	39.7	1	3	90	0.00	30.195 
08:35	40.9	40.9	40.9	96	39.8	1	3	90	0.00	30.195 
08:40	40.9	40.9	40.9	96	39.8	0	2	90	0.00	30.195 
08:45	40.9	40.9	40.9	96	39.8	0	1	90	0.00	30.196 
08:50	40.9	40.9	40.9	96	39.8	0	2	90	0.00	30.196 
08:55	40.8	40.8	40.8	96	39.7	0	3	90	0.00	30.196 
09:00	40.8	40.8	40.8	96	39.7	1	3	112	0.00	30.191 
09:05	40.8	40.8	40.8	96	39.7	0	2	135	0.00	30.191 
09:10	40.9	40.9	40.9	96	39.8	1	3	112	0.00	30.191 
09:15	40.9	40.9	40.9	96	39.8	0	2	112	0.00	30.195 
09:20	41.1	41.1	41.1	96	40.0	0	2	112	0.00	30.195 
09:25	41.1	41.1	41.1	96	40.0	0	2	112	0.00	30.195 
09:30	41.1	41.1	41.1	96	40.0	0	2	112	0.00	30.176 
09:35	41.1	41.1	41.1	96	40.0	0	1	112	0.00	30.176 
09:40	41.3	41.3	41.3	96	40.2	0	2	112	0.00	30.176 
09:45	41.5	41.5	41.5	96	40.4	0	2	112	0.00	30.178 
09:50	41.8	41.8	41.8	96	40.7	0	2	112	0.00	30.178 
09:55	42.1	42.1	42.1	97	41.3	0	2	112	0.00	30.178 
10:00	42.3	42.3	42.3	97	41.5	0	2	112	0.00	30.167 
10:05	42.5	42.5	42.5	97	41.7	0	2	112	0.00	30.167 
10:10	42.8	42.8	42.8	97	42.0	0	2	112	0.00	30.167 
10:15	42.9	42.9	42.9	97	42.1	0	1	112	0.00	30.169 
10:20	43.2	43.2	43.2	97	42.4	1	3	135	0.00	30.169 
10:25	43.6	43.6	43.6	97	42.8	1	3	112	0.00	30.169 
10:30	43.9	43.9	43.9	97	43.1	1	2	112	0.00	30.160 
10:35	44.1	44.1	44.1	97	43.3	1	3	90	0.00	30.160 
10:40	44.3	44.3	44.3	97	43.5	1	3	112	0.00	30.160 
10:45	44.5	44.5	44.5	97	43.7	1	3	112	0.00	30.146 
10:50	44.6	44.6	44.6	97	43.8	1	3	135	0.00	30.146 
10:55	44.9	44.9	44.9	97	44.1	1	4	90	0.00	30.146 
11:00	45.1	45.1	45.1	97	44.3	2	7	135	0.00	30.141 
11:05	45.4	45.4	45.4	97	44.6	1	5	68	0.00	30.141 
11:10	45.7	45.7	45.7	97	44.9	1	5	112	0.00	30.141 
11:15	46.1	46.1	46.1	97	45.3	1	6	90	0.00	30.128 
11:20	46.7	46.7	46.7	96	45.6	1	4	90	0.00	30.128 
11:25	47.1	47.1	47.1	96	46.0	0	2	202	0.00	30.128 
11:30	47.4	47.4	47.4	96	46.3	1	3	112	0.00	30.133 
11:35	47.6	47.6	47.6	96	46.5	1	4	248	0.00	30.133 
11:40	47.6	47.6	47.6	96	46.5	1	4	248	0.00	30.133 
11:45	47.6	47.6	47.6	95	46.2	1	5	90	0.00	30.137 
11:50	47.6	47.6	47.6	95	46.2	1	4	248	0.00	30.137 
11:55	47.6	47.6	47.6	95	46.2	0	2	225	0.00	30.137 
12:00	47.7	47.7	47.7	95	46.3	1	4	225	0.00	30.128 
12:05	47.7	47.7	47.7	95	46.3	1	4	270	0.00	30.128 
12:10	47.9	47.9	47.9	95	46.5	1	5	270	0.00	30.128 
12:15	48.0	48.0	48.0	94	46.4	1	3	248	0.00	30.118 
12:20	48.2	48.2	48.2	94	46.6	1	4	248	0.00	30.118 
12:25	48.3	48.3	48.3	94	46.7	1	4	248	0.00	30.118 
12:30	48.5	48.5	48.5	94	46.9	1	4	248	0.00	30.108 
12:35	48.6	48.6	48.6	94	47.0	1	3	90	0.00	30.108 
12:40	48.8	48.8	48.8	93	46.9	1	3	315	0.00	30.108 
12:45	48.9	48.9	48.9	93	47.0	1	4	270	0.00	30.092 
12:50	49.2	49.2	49.2	93	47.3	2	9	248	0.00	30.092 
12:55	49.5	49.5	49.5	93	47.6	0	3	338	0.00	30.092 
13:00	49.6	49.6	49.6	93	47.7	1	7	292	0.00	30.087 
13:05	49.8	49.8	49.8	93	47.9	1	5	248	0.00	30.087 
13:10	50.1	50.1	50.1	92	47.9	1	4	248	0.00	30.087 
13:15	50.2	50.2	50.2	92	48.0	2	5	90	0.00	30.074 
13:20	50.7	50.7	50.7	92	48.5	2	6	248	0.00	30.074 
13:25	50.8	50.8	50.8	91	48.3	2	5	90	0.00	30.074 
13:30	51.0	51.0	51.0	91	48.5	2	5	248	0.00	30.068 
13:35	51.0	51.0	51.0	90	48.2	2	7	270	0.00	30.068 
13:40	51.1	51.1	51.1	90	48.3	1	6	248	0.00	30.068 
13:45	51.1	51.1	51.1	90	48.3	1	4	270	0.00	30.061 
13:50	51.1	51.1	51.1	90	48.3	1	5	270	0.00	30.061 
13:55	51.1	51.1	51.1	90	48.3	1	3	248	0.00	30.061 
14:00	51.1	51.1	51.1	90	48.3	1	4	248	0.00	30.061 
14:05	51.1	51.1	51.1	89	48.0	1	4	270	0.00	30.061 
14:10	51.1	51.1	51.1	89	48.0	1	8	270	0.00	30.061 
14:15	51.1	51.1	51.1	89	48.0	1	3	90	0.00	30.046 
14:20	51.1	51.1	51.1	90	48.3	0	5	248	0.00	30.046 
14:25	51.1	51.1	51.1	90	48.3	0	3	270	0.00	30.046 
14:30	51.1	51.1	51.1	90	48.3	1	3	225	0.00	30.040 
14:35	51.1	51.1	51.1	90	48.3	1	3	225	0.00	30.040 
14:40	51.1	51.1	51.1	90	48.3	1	3	225	0.00	30.040 
14:45	51.0	51.0	51.0	91	48.5	1	3	338	0.00	30.014 
14:50	51.0	51.0	51.0	91	48.5	1	4	112	0.00	30.014 
14:55	51.0	51.0	51.0	92	48.8	1	3	22	0.00	30.014 
15:00	51.0	51.0	51.0	92	48.8	1	3	22	0.00	30.009 
15:05	51.0	51.0	51.0	92	48.8	1	3	270	0.00	30.009 
15:10	51.0	51.0	51.0	92	48.8	1	5	270	0.00	30.009 
15:15	51.0	51.0	51.0	92	48.8	1	4	248	0.00	30.006 
15:20	51.0	51.0	51.0	92	48.8	1	3	90	0.00	30.006 
15:25	51.0	51.0	51.0	93	49.0	1	4	112	0.00	30.006 
15:30	51.1	51.1	51.1	93	49.1	1	5	315	0.00	29.998 
15:35	51.3	51.3	51.3	93	49.3	1	5	248	0.00	29.998 
15:40	51.3	51.3	51.3	93	49.3	2	4	270	0.00	29.998 
15:45	51.4	51.4	51.4	93	49.4	1	4	248	0.00	30.001 
15:50	51.4	51.4	51.4	93	49.4	1	4	248	0.00	30.001 
15:55	51.4	51.4	51.4	93	49.4	2	7	248	0.00	30.001 
16:00	51.6	51.6	51.6	93	49.6	2	6	248	0.00	29.998 
16:05	51.6	51.6	51.6	93	49.6	1	3	248	0.01	29.998 
16:10	51.6	51.6	51.6	93	49.6	1	3	315	0.00	29.998 
16:15	51.4	51.4	51.4	93	49.4	1	5	270	0.00	29.999 
16:20	51.4	51.4	51.4	93	49.4	1	6	248	0.01	29.999 
16:25	51.4	51.4	51.4	93	49.4	1	5	248	0.00	29.999 
16:30	51.4	51.4	51.4	93	49.4	1	5	248	0.01	30.008 
16:35	51.4	51.4	51.4	94	49.7	2	4	292	0.01	30.008 
16:40	51.4	51.4	51.4	94	49.7	1	4	248	0.00	30.008 
16:45	51.4	51.4	51.4	94	49.7	1	4	270	0.01	30.011 
16:50	51.3	51.3	51.3	94	49.6	1	4	270	0.01	30.011 
16:55	51.3	51.3	51.3	94	49.6	1	4	248	0.00	30.011 
17:00	51.3	51.3	51.3	94	49.6	1	6	248	0.01	29.991 
17:05	51.3	51.3	51.3	94	49.6	1	3	45	0.00	29.991 
17:10	51.3	51.3	51.3	95	49.9	1	6	270	0.00	29.991 
17:15	51.3	51.3	51.3	95	49.9	1	4	45	0.01	29.973 
17:20	51.4	51.4	51.4	95	50.0	1	5	112	0.00	29.973 
17:25	51.4	51.4	51.4	95	50.0	1	4	90	0.01	29.973 
17:30	51.4	51.4	51.4	95	50.0	1	3	270	0.01	29.974 
17:35	51.4	51.4	51.4	95	50.0	2	4	90	0.00	29.974 
17:40	51.6	51.6	51.6	95	50.2	2	6	90	0.00	29.974 
17:45	51.7	51.7	51.7	95	50.3	2	5	112	0.00	29.952 
17:50	51.7	51.7	51.7	95	50.3	1	3	90	0.00	29.952 
17:55	51.9	51.9	51.9	95	50.5	2	6	112	0.00	29.952 
18:00	51.9	51.9	51.9	95	50.5	1	7	292	0.00	29.962 
18:05	51.9	51.9	51.9	95	50.5	1	3	248	0.00	29.962 
18:10	51.9	51.9	51.9	95	50.5	0	2	158	0.00	29.962 
18:15	51.9	51.9	51.9	95	50.5	1	3	112	0.00	29.965 
18:20	52.0	52.0	52.0	95	50.6	1	6	45	0.00	29.965 
18:25	52.0	52.0	52.0	95	50.6	1	6	270	0.00	29.965 
18:30	52.0	52.0	52.0	95	50.6	2	5	68	0.00	29.963 
18:35	52.0	52.0	52.0	95	50.6	1	4	45	0.00	29.963 
18:40	52.0	52.0	52.0	95	50.6	2	5	112	0.00	29.963 
18:45	52.0	52.0	52.0	95	50.6	1	5	90	0.00	29.953 
18:50	52.0	52.0	52.0	95	50.6	2	5	90	0.01	29.953 
18:55	52.0	52.0	52.0	94	50.3	1	5	112	0.00	29.953 
19:00	52.0	52.0	52.0	94	50.3	0	2	0	0.00	29.961 
19:05	52.0	52.0	52.0	94	50.3	1	5	90	0.00	29.961 
19:10	52.0	52.0	52.0	94	50.3	1	3	112	0.00	29.961 
19:15	52.0	52.0	52.0	94	50.3	1	3	112	0.00	29.957 
19:20	52.0	52.0	52.0	95	50.6	0	2	225	0.01	29.957 
19:25	52.0	52.0	52.0	94	50.3	1	3	248	0.00	29.957 
19:30	52.0	52.0	52.0	95	50.6	1	3	0	0.00	29.965 
19:35	52.2	52.2	52.2	95	50.8	1	4	68	0.01	29.965 
19:40	52.2	52.2	52.2	95	50.8	1	3	68	0.01	29.965 
19:45	52.2	52.2	52.2	95	50.8	1	6	68	0.01	29.954 
19:50	52.3	52.3	52.3	95	50.9	1	3	112	0.01	29.954 
19:55	52.3	52.3	52.3	95	50.9	1	4	292	0.00	29.954 
20:00	52.5	52.5	52.5	95	51.1	1	4	292	0.01	29.946 
20:05	52.5	52.5	52.5	95	51.1	2	5	270	0.00	29.946 
20:10	52.6	52.6	52.6	95	51.2	1	4	292	0.00	29.946 
20:15	52.8	52.8	52.8	95	51.4	1	5	270	0.00	29.931 
20:20	52.8	52.8	52.8	95	51.4	1	3	248	0.01	29.931 
20:25	52.9	52.9	52.9	95	51.5	1	4	270	0.00	29.931 
20:30	53.1	53.1	53.1	95	51.7	2	6	248	0.00	29.926 
20:35	53.1	53.1	53.1	95	51.7	1	6	135	0.00	29.926 
20:40	53.2	53.2	53.2	95	51.8	1	6	248	0.00	29.926 
20:45	53.2	53.2	53.2	95	51.8	2	7	248	0.01	29.915 
20:50	53.2	53.2	53.2	95	51.8	2	7	248	0.00	29.915 
20:55	53.2	53.2	53.2	95	51.8	1	9	270	0.00	29.915 
21:00	53.2	53.2	53.2	95	51.8	2	6	270	0.00	29.905 
21:05	53.3	53.3	53.3	95	51.9	1	4	248	0.00	29.905 
21:10	53.3	53.3	53.3	95	51.9	1	4	270	0.00	29.905 
21:15	53.3	53.3	53.3	95	51.9	2	5	248	0.00	29.902 
21:20	53.5	53.5	53.5	95	52.1	2	5	248	0.00	29.902 
21:25	53.5	53.5	53.5	95	52.1	2	6	248	0.00	29.902 
21:30	53.5	53.5	53.5	95	52.1	1	5	225	0.00	29.886 
21:35	53.5	53.5	53.5	95	52.1	2	7	0	0.00	29.886 
21:40	53.6	53.6	53.6	95	52.2	2	6	270	0.00	29.886 
21:45	53.6	53.6	53.6	95	52.2	2	4	270	0.00	29.868 
21:50	53.8	53.8	53.8	95	52.4	2	12	68	0.01	29.868 
21:55	53.8	53.8	53.8	94	52.1	2	7	225	0.00	29.868 
22:00	53.8	53.8	53.8	94	52.1	2	4	248	0.00	29.863 
22:05	53.9	53.9	53.9	94	52.2	2	7	338	0.00	29.863 
22:10	53.9	53.9	53.9	94	52.2	2	11	248	0.00	29.863 
22:15	54.1	54.1	54.1	94	52.4	2	11	270	0.01	29.857 
22:20	54.1	54.1	54.1	94	52.4	2	10	248	0.01	29.857 
22:25	54.2	54.2	54.2	94	52.5	3	10	248	0.00	29.857 
22:30	54.2	54.2	54.2	94	52.5	3	11	248	0.00	29.845 
22:35	54.2	54.2	54.2	94	52.5	2	6	248	0.02	29.845 
22:40	54.2	54.2	54.2	94	52.5	2	7	248	0.02	29.845 
22:45	54.2	54.2	54.2	94	52.5	2	6	248	0.00	29.850 
22:50	54.2	54.2	54.2	95	52.8	2	6	248	0.02	29.850 
22:55	54.4	54.4	54.4	95	53.0	3	10	248	0.01	29.850 
23:00	54.4	54.4	54.4	95	53.0	2	4	270	0.01	29.835 
23:05	54.4	54.4	54.4	95	53.0	3	10	68	0.01	29.835 
23:10	54.4	54.4	54.4	95	53.0	2	4	45	0.00	29.835 
23:15	54.4	54.4	54.4	95	53.0	2	5	68	0.00	29.817 
23:20	54.4	54.4	54.4	95	53.0	2	5	270	0.00	29.817 
23:25	54.4	54.4	54.4	95	53.0	2	5	225	0.00	29.817 
23:30	54.5	54.5	54.5	95	53.1	2	7	292	0.00	29.810 
23:35	54.5	54.5	54.5	95	53.1	2	9	248	0.00	29.810 
23:40	54.5	54.5	54.5	95	53.1	2	10	248	0.01	29.810 
23:45	54.5	54.5	54.5	95	53.1	3	8	248	0.00	29.812 
23:50	54.5	54.5	54.5	95	53.1	2	7	248	0.00	29.812 
23:55	54.5	54.5	54.5	95	53.1	3	8	248	0.00	29.812 

CoCoRaHS
IN-AL-39
A2 Web Hosting
Creative Commons License
GoDaddy
search engine by freefind advanced

loaded 2018-11-15 06:19:54 • last modified 2010-11-18 10:43:29
Privacy PolicyDisclaimer
• wx.awcolley.com is powered by PmWiki v.2002016 •
• all content (unless otherwise noted) © 2018 A W Colley